Time;durP1;ratioP1;P1;durP2;ratioP2;P2;SDS_P1;SDS_P2;PMS_P1;PMS_P2;Temp;Humidity;BMP_temperature;BMP_pressure;BME280_temperature;BME280_humidity;BME280_pressure;Samples;Min_cycle;Max_cycle;Signal;HPM_P1;HPM_P2
2021/11/16 00:00:52;;;;;;;7.47;6.53;;;18.70;99.90;;;;;;5106891;28;20047;-90
2021/11/16 00:03:18;;;;;;;7.43;6.63;;;18.80;99.90;;;;;;5072496;28;20048;-86
2021/11/16 00:05:44;;;;;;;8.68;6.80;;;18.80;99.90;;;;;;5054971;28;20190;-85
2021/11/16 00:08:09;;;;;;;6.85;6.15;;;18.80;99.90;;;;;;5052127;28;20123;-87
2021/11/16 00:10:37;;;;;;;6.78;6.07;;;18.70;99.90;;;;;;5054657;28;20067;-86
2021/11/16 00:13:04;;;;;;;8.07;6.70;;;18.70;99.90;;;;;;5075130;28;20480;-88
2021/11/16 00:15:30;;;;;;;8.57;6.60;;;18.70;99.90;;;;;;5065238;28;20044;-91
2021/11/16 00:17:56;;;;;;;7.47;6.55;;;18.70;99.90;;;;;;5075134;28;20118;-87
2021/11/16 00:20:23;;;;;;;8.00;6.53;;;18.70;99.90;;;;;;5058938;28;20130;-89
2021/11/16 00:22:48;;;;;;;7.13;6.13;;;18.70;99.90;;;;;;5046536;28;20040;-89
2021/11/16 00:25:22;;;;;;;8.60;7.07;;;18.70;99.90;;;;;;5056348;28;20044;-88
2021/11/16 00:27:49;;;;;;;7.63;6.05;;;18.70;99.90;;;;;;5073242;28;20097;-87
2021/11/16 00:30:15;;;;;;;9.05;7.00;;;18.70;99.90;;;;;;5043268;28;20040;-87
2021/11/16 00:32:42;;;;;;;7.80;6.90;;;18.70;99.90;;;;;;5058128;28;20044;-89
2021/11/16 00:35:08;;;;;;;8.50;7.13;;;18.70;99.90;;;;;;5055886;28;20488;-89
2021/11/16 00:37:35;;;;;;;8.00;6.72;;;18.70;99.90;;;;;;5072120;28;20079;-89
2021/11/16 00:40:05;;;;;;;7.95;6.57;;;18.70;99.90;;;;;;5056711;28;20036;-90
2021/11/16 00:42:31;;;;;;;8.10;6.80;;;18.60;99.90;;;;;;5072238;28;20048;-91
2021/11/16 00:44:57;;;;;;;7.97;6.80;;;18.60;99.90;;;;;;5072986;28;20418;-89
2021/11/16 00:47:23;;;;;;;6.72;6.03;;;18.60;99.90;;;;;;5089325;28;20040;-89
2021/11/16 00:49:53;;;;;;;7.65;6.95;;;18.60;99.90;;;;;;5053377;28;20044;-87
2021/11/16 00:52:20;;;;;;;7.40;6.70;;;18.60;99.90;;;;;;5088869;28;20047;-88
2021/11/16 00:54:47;;;;;;;8.73;6.97;;;18.60;99.90;;;;;;5052877;28;20048;-88
2021/11/16 00:57:12;;;;;;;9.40;7.10;;;18.60;99.90;;;;;;5088574;28;20062;-86
2021/11/16 00:59:38;;;;;;;7.72;6.82;;;18.60;99.90;;;;;;5056132;28;20562;-88
2021/11/16 01:02:04;;;;;;;7.57;6.78;;;18.60;99.90;;;;;;5067323;28;20606;-88
2021/11/16 01:04:30;;;;;;;7.80;6.28;;;18.60;99.90;;;;;;5050717;28;20079;-88
2021/11/16 01:06:56;;;;;;;9.45;6.80;;;18.60;99.90;;;;;;5056849;28;20937;-89
2021/11/16 01:09:23;;;;;;;7.05;6.03;;;18.60;99.90;;;;;;5045334;28;20044;-87
2021/11/16 01:11:50;;;;;;;7.75;6.32;;;18.60;99.90;;;;;;5052484;28;20059;-87
2021/11/16 01:14:15;;;;;;;8.73;6.72;;;18.50;99.90;;;;;;5066452;28;20107;-87
2021/11/16 01:16:41;;;;;;;7.70;6.88;;;18.50;99.90;;;;;;5089177;28;20539;-88
2021/11/16 01:19:09;;;;;;;7.70;6.90;;;18.50;99.90;;;;;;5055845;28;20078;-89
2021/11/16 01:21:36;;;;;;;7.93;6.55;;;18.60;99.90;;;;;;5071648;28;20043;-87
2021/11/16 01:24:05;;;;;;;7.47;6.68;;;18.50;99.90;;;;;;5052095;28;20041;-89
2021/11/16 01:26:31;;;;;;;8.10;7.15;;;18.50;99.90;;;;;;5103135;28;20471;-87
2021/11/16 01:28:59;;;;;;;7.95;6.78;;;18.50;99.90;;;;;;5089197;28;20044;-87
2021/11/16 01:31:27;;;;;;;8.88;6.90;;;18.50;99.90;;;;;;5059809;28;20048;-88
2021/11/16 01:33:55;;;;;;;7.95;6.88;;;18.50;99.90;;;;;;5047260;28;20058;-87
2021/11/16 01:36:22;;;;;;;7.78;6.85;;;18.50;99.90;;;;;;5097392;28;20101;-87
2021/11/16 01:38:50;;;;;;;7.75;6.95;;;18.50;99.90;;;;;;5096324;28;20043;-88
2021/11/16 01:41:16;;;;;;;9.05;7.53;;;18.50;99.90;;;;;;5071858;28;20048;-85
2021/11/16 01:43:42;;;;;;;9.25;7.40;;;18.50;99.90;;;;;;5068149;28;20043;-88
2021/11/16 01:46:12;;;;;;;8.10;7.18;;;18.50;99.90;;;;;;5055451;28;20051;-87
2021/11/16 01:48:40;;;;;;;11.25;8.02;;;18.50;99.90;;;;;;5054403;28;20082;-87
2021/11/16 01:51:06;;;;;;;9.15;7.75;;;18.50;99.90;;;;;;5088699;28;20044;-87
2021/11/16 01:53:33;;;;;;;8.07;6.65;;;18.40;99.90;;;;;;5086932;28;20133;-86
2021/11/16 01:56:00;;;;;;;8.63;7.57;;;18.50;99.90;;;;;;5051855;28;20574;-86
2021/11/16 01:58:26;;;;;;;8.02;7.22;;;18.50;99.90;;;;;;5032320;28;20503;-88
2021/11/16 02:00:52;;;;;;;8.00;6.93;;;18.50;99.90;;;;;;5053443;28;20116;-87
2021/11/16 02:03:19;;;;;;;10.02;7.47;;;18.50;99.90;;;;;;5088731;28;20036;-84
2021/11/16 02:05:48;;;;;;;8.93;7.60;;;18.40;99.90;;;;;;5071500;28;20044;-88
2021/11/16 02:08:15;;;;;;;8.43;7.03;;;18.40;99.90;;;;;;5055283;28;20090;-92
2021/11/16 02:10:43;;;;;;;9.65;7.68;;;18.40;99.90;;;;;;5055208;28;20063;-87
2021/11/16 02:13:09;;;;;;;7.82;7.03;;;18.40;99.90;;;;;;5083512;28;20377;-85
2021/11/16 02:15:38;;;;;;;9.40;7.47;;;18.40;99.90;;;;;;5088952;28;20059;-84
2021/11/16 02:18:07;;;;;;;8.73;7.78;;;18.40;99.90;;;;;;5071282;28;20044;-87
2021/11/16 02:20:34;;;;;;;8.30;7.50;;;18.40;99.90;;;;;;5051542;28;20051;-87
2021/11/16 02:23:00;;;;;;;8.80;7.20;;;18.40;99.90;;;;;;5077384;28;20040;-87
2021/11/16 02:25:27;;;;;;;8.65;7.35;;;18.40;99.90;;;;;;5054379;28;20051;-87
2021/11/16 02:27:53;;;;;;;8.15;7.28;;;18.40;99.90;;;;;;5071342;28;20044;-87
2021/11/16 02:30:23;;;;;;;9.68;7.68;;;18.40;99.90;;;;;;5052235;28;20055;-88
2021/11/16 02:32:49;;;;;;;9.15;7.65;;;18.40;99.90;;;;;;5104459;28;20047;-87
2021/11/16 02:35:20;;;;;;;8.30;7.40;;;18.40;99.90;;;;;;5052474;28;20456;-89
2021/11/16 02:37:47;;;;;;;9.25;7.30;;;18.40;99.90;;;;;;5063248;28;20088;-87
2021/11/16 02:40:13;;;;;;;9.23;7.60;;;18.40;99.90;;;;;;5065416;28;20040;-87
2021/11/16 02:42:40;;;;;;;8.63;7.28;;;18.40;99.90;;;;;;5055217;28;20040;-87
2021/11/16 02:45:08;;;;;;;8.82;7.22;;;18.40;99.90;;;;;;5104943;28;20054;-86
2021/11/16 02:47:33;;;;;;;8.82;7.93;;;18.30;99.90;;;;;;5053564;28;20040;-87
2021/11/16 02:49:59;;;;;;;8.65;7.53;;;18.30;99.90;;;;;;5065226;28;20042;-86
2021/11/16 02:52:26;;;;;;;8.40;7.50;;;18.30;99.90;;;;;;5068044;28;20044;-86
2021/11/16 02:54:52;;;;;;;9.05;7.95;;;18.30;99.90;;;;;;5104890;28;20063;-86
2021/11/16 02:57:18;;;;;;;8.35;7.53;;;18.30;99.90;;;;;;5071366;28;20423;-87
2021/11/16 02:59:45;;;;;;;8.98;7.20;;;18.30;99.90;;;;;;5071362;28;20048;-86
2021/11/16 03:02:11;;;;;;;10.32;7.25;;;18.30;99.90;;;;;;5107939;28;20087;-86
2021/11/16 03:04:43;;;;;;;10.38;8.45;;;18.30;99.90;;;;;;5057403;28;20048;-86
2021/11/16 03:07:10;;;;;;;10.63;8.63;;;18.30;99.90;;;;;;5069210;28;20040;-86
2021/11/16 03:09:36;;;;;;;10.85;8.05;;;18.30;99.90;;;;;;5057481;28;20079;-87
2021/11/16 03:12:03;;;;;;;10.10;7.80;;;18.30;99.90;;;;;;5059518;28;20071;-87
2021/11/16 03:14:30;;;;;;;9.95;7.00;;;18.20;99.90;;;;;;5073959;28;20702;-85
2021/11/16 03:16:56;;;;;;;9.40;7.70;;;18.30;99.90;;;;;;5058261;28;20132;-86
2021/11/16 03:19:23;;;;;;;8.75;7.32;;;18.20;99.90;;;;;;5074524;28;20047;-86
2021/11/16 03:21:57;;;;;;;9.32;7.72;;;18.30;99.90;;;;;;5057776;28;20052;-86
2021/11/16 03:24:26;;;;;;;10.50;7.75;;;18.30;99.90;;;;;;5071207;28;20075;-86
2021/11/16 03:26:52;;;;;;;9.70;7.53;;;18.20;99.90;;;;;;5074239;28;20040;-86
2021/11/16 03:29:23;;;;;;;11.05;7.93;;;18.20;99.90;;;;;;5074464;28;20048;-87
2021/11/16 03:31:52;;;;;;;8.82;7.15;;;18.20;99.90;;;;;;5057503;28;20496;-86
2021/11/16 03:34:18;;;;;;;9.05;7.30;;;18.20;99.90;;;;;;5053252;28;20100;-86
2021/11/16 03:36:45;;;;;;;10.00;7.90;;;18.20;99.90;;;;;;5053280;28;20780;-86
2021/11/16 03:39:12;;;;;;;9.48;7.80;;;18.20;99.90;;;;;;5102227;28;20035;-85
2021/11/16 03:41:39;;;;;;;8.63;7.30;;;18.20;99.90;;;;;;5071504;28;20053;-86
2021/11/16 03:44:04;;;;;;;9.50;7.55;;;18.20;99.90;;;;;;5098188;28;20047;-86
2021/11/16 03:46:30;;;;;;;9.73;7.82;;;18.20;99.90;;;;;;5073339;28;20051;-88
2021/11/16 03:48:56;;;;;;;9.00;7.57;;;18.20;99.90;;;;;;5057392;28;20071;-85
2021/11/16 03:51:22;;;;;;;10.05;7.57;;;18.20;99.90;;;;;;5073930;28;20417;-87
2021/11/16 03:53:49;;;;;;;10.68;8.65;;;18.20;99.90;;;;;;5048352;28;20059;-86
2021/11/16 03:56:15;;;;;;;9.52;8.02;;;18.20;99.90;;;;;;5077943;28;20056;-88
2021/11/16 03:58:44;;;;;;;9.27;8.05;;;18.20;99.90;;;;;;5069623;28;20056;-87
2021/11/16 04:01:10;;;;;;;8.13;7.22;;;18.20;99.90;;;;;;5054211;28;20131;-87
2021/11/16 04:03:38;;;;;;;8.90;7.68;;;18.20;99.90;;;;;;5069735;28;20048;-88
2021/11/16 04:06:06;;;;;;;9.75;7.82;;;18.20;99.90;;;;;;5076492;28;20131;-88
2021/11/16 04:08:32;;;;;;;10.13;7.93;;;18.20;99.90;;;;;;5070670;28;20115;-88
2021/11/16 04:10:58;;;;;;;9.27;8.07;;;18.10;99.90;;;;;;5037094;28;20036;-88
2021/11/16 04:13:24;;;;;;;11.18;7.88;;;18.10;99.90;;;;;;5053509;28;20046;-86
2021/11/16 04:15:50;;;;;;;9.18;7.90;;;18.10;99.90;;;;;;5070132;28;20044;-85
2021/11/16 04:18:18;;;;;;;10.00;7.97;;;18.10;99.90;;;;;;5050172;28;20048;-86
2021/11/16 04:20:47;;;;;;;10.80;8.00;;;18.10;99.90;;;;;;5063812;28;20061;-86
2021/11/16 04:23:15;;;;;;;9.55;7.93;;;18.10;99.90;;;;;;5070060;28;20052;-88
2021/11/16 04:25:42;;;;;;;9.95;8.02;;;18.10;99.90;;;;;;5073130;28;20071;-87
2021/11/16 04:28:10;;;;;;;10.00;8.20;;;18.10;99.90;;;;;;5050689;28;20033;-88
2021/11/16 04:30:36;;;;;;;9.55;8.25;;;18.10;99.90;;;;;;5060884;28;20068;-88
2021/11/16 04:33:03;;;;;;;10.25;7.75;;;18.10;99.90;;;;;;5069550;28;20079;-88
2021/11/16 04:35:30;;;;;;;11.43;8.40;;;18.10;99.90;;;;;;5069926;28;20119;-88
2021/11/16 04:37:59;;;;;;;9.52;7.63;;;18.10;99.90;;;;;;5070256;28;20052;-89
2021/11/16 04:40:33;;;;;;;10.27;8.40;;;18.10;99.90;;;;;;5049726;28;20051;-86
2021/11/16 04:43:06;;;;;;;10.15;8.05;;;18.10;99.90;;;;;;5065033;28;20036;-86
2021/11/16 04:45:33;;;;;;;10.63;8.43;;;18.10;99.90;;;;;;5086328;28;20055;-85
2021/11/16 04:48:03;;;;;;;10.27;8.07;;;18.10;99.90;;;;;;5069497;28;20041;-86
2021/11/16 05:03:53;;;;;;;10.02;8.15;;;18.00;99.90;;;;;;5032888;28;20041;-86
2021/11/16 05:06:20;;;;;;;10.40;8.48;;;18.00;99.90;;;;;;5069153;28;20503;-86
2021/11/16 05:08:47;;;;;;;11.25;8.45;;;18.00;99.90;;;;;;5060120;28;20044;-85
2021/11/16 05:11:14;;;;;;;13.10;8.77;;;18.00;99.90;;;;;;5068857;28;20503;-86
2021/11/16 05:13:43;;;;;;;10.77;8.35;;;18.00;99.90;;;;;;5068271;28;20058;-87
2021/11/16 05:16:10;;;;;;;10.25;8.48;;;18.00;99.90;;;;;;5052668;28;20051;-87
2021/11/16 05:18:36;;;;;;;11.57;7.95;;;18.00;99.90;;;;;;5067071;28;20151;-84
2021/11/16 05:21:02;;;;;;;11.38;8.68;;;18.00;99.90;;;;;;5068835;28;20132;-86
2021/11/16 05:23:28;;;;;;;11.60;8.48;;;18.00;99.90;;;;;;5051853;28;20047;-86
2021/11/16 05:25:54;;;;;;;12.40;8.50;;;18.00;99.90;;;;;;5068276;28;20045;-86
2021/11/16 05:28:21;;;;;;;8.98;7.65;;;18.00;99.90;;;;;;5068210;28;20056;-87
2021/11/16 05:30:48;;;;;;;12.20;8.98;;;18.00;99.90;;;;;;5057503;28;20079;-88
2021/11/16 05:33:14;;;;;;;11.63;8.55;;;18.00;99.90;;;;;;5050912;28;20119;-87
2021/11/16 05:35:40;;;;;;;10.57;8.48;;;18.00;99.90;;;;;;5068218;28;20159;-87
2021/11/16 05:38:07;;;;;;;10.82;8.60;;;18.00;99.90;;;;;;5068616;28;20040;-88
2021/11/16 05:40:33;;;;;;;11.18;8.77;;;18.00;99.90;;;;;;5048350;28;20044;-86
2021/11/16 05:42:59;;;;;;;10.88;8.63;;;18.00;99.90;;;;;;5067897;28;20064;-87
2021/11/16 05:45:25;;;;;;;11.52;8.80;;;18.00;99.90;;;;;;5052151;28;20044;-86
2021/11/16 05:47:56;;;;;;;12.52;8.68;;;18.00;99.90;;;;;;5051410;28;20056;-86
2021/11/16 05:50:22;;;;;;;10.85;8.45;;;17.90;99.90;;;;;;5051431;28;20136;-86
2021/11/16 05:52:49;;;;;;;9.80;8.05;;;17.90;99.90;;;;;;5036701;28;20131;-86
2021/11/16 05:55:15;;;;;;;10.25;8.13;;;17.90;99.90;;;;;;5072052;28;20047;-86
2021/11/16 05:57:41;;;;;;;11.65;8.77;;;17.90;99.90;;;;;;5055546;28;20134;-85
2021/11/16 06:00:10;;;;;;;11.77;8.93;;;17.90;99.90;;;;;;5074629;28;20043;-86
2021/11/16 06:02:36;;;;;;;11.07;8.70;;;17.90;99.90;;;;;;5094466;28;20048;-86
2021/11/16 06:05:02;;;;;;;9.82;7.70;;;17.90;99.90;;;;;;5054611;28;20040;-85
2021/11/16 06:07:28;;;;;;;11.65;8.90;;;17.90;99.90;;;;;;5038694;28;20052;-86
2021/11/16 06:09:54;;;;;;;11.88;8.40;;;17.90;99.90;;;;;;5038034;28;20052;-86
2021/11/16 06:12:20;;;;;;;11.23;9.00;;;17.90;99.90;;;;;;5072610;28;20046;-85
2021/11/16 06:14:45;;;;;;;11.95;8.82;;;17.90;99.90;;;;;;5051308;28;20065;-87
2021/11/16 06:17:11;;;;;;;10.15;8.50;;;17.90;99.90;;;;;;5065043;28;20047;-87
2021/11/16 06:19:38;;;;;;;10.77;8.73;;;17.90;99.90;;;;;;5038397;28;20071;-86
2021/11/16 06:22:10;;;;;;;10.10;8.13;;;17.80;99.90;;;;;;5065114;28;20043;-85
2021/11/16 06:24:37;;;;;;;11.90;8.77;;;17.90;99.90;;;;;;5089968;28;20051;-86
2021/11/16 06:27:04;;;;;;;10.55;8.30;;;17.90;99.90;;;;;;5069101;28;20036;-86
2021/11/16 06:29:30;;;;;;;10.02;8.27;;;17.80;99.90;;;;;;5056881;28;20043;-87
2021/11/16 06:31:56;;;;;;;13.13;9.20;;;17.90;99.90;;;;;;5051829;28;20128;-85
2021/11/16 06:34:22;;;;;;;11.00;8.70;;;17.80;99.90;;;;;;5069589;28;20058;-87
2021/11/16 06:36:47;;;;;;;13.55;9.15;;;17.80;99.90;;;;;;5071395;28;20040;-87
2021/11/16 06:39:21;;;;;;;9.85;8.35;;;17.80;99.90;;;;;;5053232;28;20082;-86
2021/11/16 06:41:49;;;;;;;12.90;9.07;;;17.80;99.90;;;;;;5054530;28;20063;-86
2021/11/16 06:44:18;;;;;;;10.93;8.75;;;17.80;99.90;;;;;;5040620;28;20093;-88
2021/11/16 06:46:45;;;;;;;11.15;8.07;;;17.90;99.90;;;;;;5071352;28;20102;-86
2021/11/16 06:49:11;;;;;;;13.07;9.18;;;17.90;99.90;;;;;;5052675;28;20108;-86
2021/11/16 06:51:39;;;;;;;11.05;8.68;;;17.90;99.90;;;;;;5060767;28;20136;-86
2021/11/16 06:54:11;;;;;;;10.98;8.63;;;17.80;99.90;;;;;;5074369;28;20063;-87
2021/11/16 06:56:38;;;;;;;11.27;9.13;;;17.80;99.90;;;;;;5074068;28;20474;-87
2021/11/16 06:59:05;;;;;;;13.90;9.07;;;17.90;99.90;;;;;;5054454;28;20051;-86
2021/11/16 07:01:33;;;;;;;8.77;7.80;;;17.90;99.90;;;;;;5053206;28;20040;-86
2021/11/16 07:04:03;;;;;;;9.70;7.82;;;17.90;99.90;;;;;;5074842;28;20041;-87
2021/11/16 07:06:29;;;;;;;10.43;8.00;;;17.90;99.90;;;;;;5095938;28;20048;-87
2021/11/16 07:08:56;;;;;;;10.65;8.40;;;18.00;99.90;;;;;;5057027;28;20047;-88
2021/11/16 07:11:23;;;;;;;10.15;7.38;;;18.00;99.90;;;;;;5058585;28;20047;-88
2021/11/16 07:13:58;;;;;;;8.50;7.30;;;18.00;99.90;;;;;;5074144;28;20047;-89
2021/11/16 07:16:26;;;;;;;8.48;7.18;;;18.00;99.90;;;;;;5074352;28;20032;-86
2021/11/16 07:18:56;;;;;;;8.93;7.38;;;18.00;99.90;;;;;;5092045;28;20052;-84
2021/11/16 07:21:23;;;;;;;10.10;7.68;;;18.10;99.90;;;;;;5079388;28;20043;-85
2021/11/16 07:24:11;;;;;;;9.60;7.22;;;18.10;99.90;;;;;;5090907;28;20052;-85
2021/11/16 07:26:40;;;;;;;9.23;7.10;;;18.10;99.90;;;;;;5064242;28;20044;-86
2021/11/16 07:29:11;;;;;;;8.43;6.68;;;18.10;99.90;;;;;;5080465;28;20052;-85
2021/11/16 07:31:41;;;;;;;8.52;6.40;;;18.10;99.90;;;;;;5102616;28;20052;-86
2021/11/16 07:34:16;;;;;;;9.32;7.22;;;18.20;99.90;;;;;;5037282;28;20063;-85
2021/11/16 07:36:56;;;;;;;10.15;6.93;;;18.20;99.90;;;;;;5055306;28;20074;-85
2021/11/16 07:39:23;;;;;;;7.00;6.30;;;18.20;99.90;;;;;;5082038;28;20063;-85
2021/11/16 07:41:51;;;;;;;8.75;6.78;;;18.20;99.90;;;;;;5053337;28;20049;-85
2021/11/16 07:44:17;;;;;;;8.07;6.45;;;18.20;99.90;;;;;;5090580;28;20162;-86
2021/11/16 07:46:55;;;;;;;10.15;7.78;;;18.20;99.90;;;;;;5055040;28;20552;-86
2021/11/16 07:49:22;;;;;;;8.00;6.72;;;18.20;99.90;;;;;;5049361;28;20040;-85
2021/11/16 07:51:50;;;;;;;8.52;6.50;;;18.20;99.90;;;;;;5053294;28;20046;-84
2021/11/16 07:54:29;;;;;;;7.95;7.15;;;18.20;99.90;;;;;;5057252;28;20067;-86
2021/11/16 07:57:03;;;;;;;8.50;6.65;;;18.20;99.90;;;;;;5045424;28;20428;-86
2021/11/16 07:59:29;;;;;;;8.18;6.57;;;18.20;99.90;;;;;;5041726;28;20040;-86
2021/11/16 08:02:12;;;;;;;7.85;7.05;;;18.20;99.90;;;;;;5033193;28;20368;-86
2021/11/16 08:05:23;;;;;;;7.75;6.30;;;18.20;99.90;;;;;;5059737;28;20090;-86
2021/11/16 08:07:48;;;;;;;9.00;6.85;;;18.30;99.90;;;;;;5062949;28;20048;-86
2021/11/16 08:10:21;;;;;;;7.05;6.30;;;18.20;99.90;;;;;;5048853;28;20484;-85
2021/11/16 08:12:48;;;;;;;7.45;6.32;;;18.20;99.90;;;;;;5039518;28;20088;-87
2021/11/16 08:15:14;;;;;;;8.52;6.55;;;18.20;99.90;;;;;;5055922;28;20044;-86
2021/11/16 08:17:41;;;;;;;7.65;6.68;;;18.20;99.90;;;;;;5061149;28;20051;-85
2021/11/16 08:20:14;;;;;;;7.05;6.30;;;18.20;99.90;;;;;;5056182;28;20119;-86
2021/11/16 08:22:40;;;;;;;7.10;6.05;;;18.20;99.90;;;;;;5058005;28;20047;-85
2021/11/16 08:25:08;;;;;;;6.75;6.00;;;18.20;99.90;;;;;;5106228;28;20047;-85
2021/11/16 08:27:43;;;;;;;7.72;6.85;;;18.20;99.90;;;;;;5090598;28;20052;-86
2021/11/16 08:30:11;;;;;;;7.47;6.03;;;18.20;99.90;;;;;;5068594;28;20040;-88
2021/11/16 08:32:40;;;;;;;7.32;6.57;;;18.20;99.90;;;;;;5072026;28;20538;-86
2021/11/16 08:35:11;;;;;;;8.47;6.80;;;18.20;99.90;;;;;;5070839;28;20545;-86
2021/11/16 08:37:39;;;;;;;6.88;6.00;;;18.20;99.90;;;;;;5056131;28;20051;-85
2021/11/16 08:40:19;;;;;;;6.85;6.15;;;18.20;99.90;;;;;;5052535;28;20396;-85
2021/11/16 08:43:03;;;;;;;6.85;5.78;;;18.20;99.90;;;;;;5072792;28;20051;-86
2021/11/16 08:45:32;;;;;;;6.60;5.93;;;18.20;99.90;;;;;;5062849;28;20051;-86
2021/11/16 08:48:09;;;;;;;7.20;5.85;;;18.20;99.90;;;;;;5054811;28;20044;-85
2021/11/16 08:50:49;;;;;;;7.07;6.05;;;18.20;99.90;;;;;;5070385;28;20131;-85
2021/11/16 08:53:22;;;;;;;6.70;5.70;;;18.20;99.90;;;;;;5070982;28;20929;-85
2021/11/16 08:55:49;;;;;;;6.60;5.85;;;18.20;99.90;;;;;;5073601;28;20051;-85
2021/11/16 08:58:16;;;;;;;6.53;5.72;;;18.20;99.90;;;;;;5071086;28;20127;-86
2021/11/16 09:00:49;;;;;;;9.00;6.50;;;18.20;99.90;;;;;;5070655;28;20549;-86
2021/11/16 09:03:26;;;;;;;6.25;5.65;;;18.20;99.90;;;;;;5055547;28;20060;-92
2021/11/16 09:05:53;;;;;;;7.35;6.20;;;18.20;99.90;;;;;;5068675;28;20151;-90
2021/11/16 09:08:26;;;;;;;7.80;5.82;;;18.20;99.90;;;;;;5056031;28;20064;-89
2021/11/16 09:11:10;;;;;;;7.40;6.10;;;18.20;99.90;;;;;;5073153;28;20052;-90
2021/11/16 09:13:35;;;;;;;6.60;5.90;;;18.20;99.90;;;;;;5052902;28;20055;-91
2021/11/16 09:16:08;;;;;;;6.50;5.60;;;18.20;99.90;;;;;;5070260;28;20355;-93
2021/11/16 09:18:53;;;;;;;6.07;5.38;;;18.10;99.90;;;;;;5059517;28;20598;-89
2021/11/16 09:21:35;;;;;;;6.35;5.55;;;18.10;99.90;;;;;;5049327;28;20483;-92
2021/11/16 09:24:01;;;;;;;6.53;5.53;;;18.10;99.90;;;;;;5075968;28;20048;-89
2021/11/16 09:29:13;;;;;;;5.97;5.18;;;18.10;99.90;;;;;;5077286;28;20487;-89
2021/11/16 09:31:44;;;;;;;5.60;5.10;;;18.10;99.90;;;;;;5062783;28;20044;-96
2021/11/16 09:34:13;;;;;;;5.90;5.30;;;18.10;99.90;;;;;;5071555;28;20093;-96
2021/11/16 09:36:42;;;;;;;6.90;5.93;;;18.10;99.90;;;;;;5063788;28;20134;-93
2021/11/16 09:39:18;;;;;;;6.22;5.40;;;18.10;99.90;;;;;;5069537;28;20466;-92
2021/11/16 09:41:45;;;;;;;6.82;5.55;;;18.10;99.90;;;;;;5072236;28;20052;-96
2021/11/16 09:44:21;;;;;;;6.13;5.35;;;18.10;99.90;;;;;;5055532;28;20502;-96
2021/11/16 09:47:18;;;;;;;5.72;5.13;;;18.10;99.90;;;;;;5061106;28;20036;-96
2021/11/16 09:49:48;;;;;;;6.88;5.68;;;18.10;99.90;;;;;;5068892;28;20506;-89
2021/11/16 09:52:19;;;;;;;5.55;4.90;;;18.10;99.90;;;;;;5072043;28;20044;-95
2021/11/16 09:54:52;;;;;;;5.90;5.30;;;18.10;99.90;;;;;;5070357;28;20052;-93
2021/11/16 09:57:24;;;;;;;5.97;5.38;;;18.10;99.90;;;;;;5053766;28;20135;-93
2021/11/16 09:59:59;;;;;;;5.30;4.80;;;18.10;99.90;;;;;;5055949;28;20040;-93
2021/11/16 10:02:28;;;;;;;6.32;5.40;;;18.10;99.90;;;;;;5069173;28;20036;-92
2021/11/16 10:05:01;;;;;;;5.73;4.70;;;18.10;99.90;;;;;;5071413;28;20074;-89
2021/11/16 10:07:27;;;;;;;5.82;5.07;;;18.00;99.90;;;;;;5069061;28;20047;-94
2021/11/16 10:09:53;;;;;;;5.50;4.85;;;18.00;99.90;;;;;;5075694;28;20051;-90
2021/11/16 10:12:23;;;;;;;5.57;5.03;;;18.00;99.90;;;;;;5042901;28;20043;-91
2021/11/16 10:14:51;;;;;;;5.88;5.30;;;18.00;99.90;;;;;;5056971;28;20056;-89
2021/11/16 10:17:17;;;;;;;5.30;4.80;;;18.00;99.90;;;;;;5056289;28;20060;-88
2021/11/16 10:19:43;;;;;;;5.47;4.85;;;18.00;99.90;;;;;;5072724;28;20106;-93
2021/11/16 10:22:13;;;;;;;6.40;5.00;;;18.10;99.90;;;;;;5050530;28;20098;-91
2021/11/16 10:24:39;;;;;;;5.43;4.93;;;18.10;99.90;;;;;;5074458;28;20048;-92
2021/11/16 10:27:17;;;;;;;6.15;5.13;;;18.10;99.90;;;;;;5040140;28;20052;-86
2021/11/16 10:29:44;;;;;;;5.30;4.80;;;18.00;99.90;;;;;;5062266;28;20177;-87
2021/11/16 10:32:21;;;;;;;5.38;4.88;;;18.10;99.90;;;;;;5052559;28;20048;-87
2021/11/16 10:34:48;;;;;;;6.40;5.72;;;18.10;99.90;;;;;;5075073;28;20048;-87
2021/11/16 10:37:14;;;;;;;5.63;5.13;;;18.10;99.90;;;;;;5056120;28;20044;-86
2021/11/16 10:39:40;;;;;;;5.68;5.13;;;18.10;99.90;;;;;;5059328;28;20373;-87
2021/11/16 10:42:16;;;;;;;5.80;4.85;;;18.10;99.90;;;;;;5060436;28;20052;-86
2021/11/16 10:44:58;;;;;;;5.28;4.80;;;18.10;99.90;;;;;;5070515;28;20055;-89
2021/11/16 10:47:35;;;;;;;7.15;4.88;;;18.10;99.90;;;;;;5055770;28;20048;-88
2021/11/16 10:50:07;;;;;;;5.00;4.50;;;18.10;99.90;;;;;;5069362;28;20524;-89
2021/11/16 10:52:35;;;;;;;5.28;4.72;;;18.10;99.90;;;;;;5078314;28;20040;-89
2021/11/16 10:55:03;;;;;;;5.03;4.57;;;18.10;99.90;;;;;;5053899;28;20099;-86
2021/11/16 10:57:52;;;;;;;5.88;4.75;;;18.00;99.90;;;;;;5064050;28;20047;-88
2021/11/16 11:00:33;;;;;;;5.72;5.05;;;18.00;99.90;;;;;;5070876;28;20101;-87
2021/11/16 11:03:30;;;;;;;5.60;5.00;;;18.00;99.90;;;;;;5057343;28;20101;-87
2021/11/16 11:06:09;;;;;;;5.47;4.93;;;18.00;99.90;;;;;;5049949;28;20132;-88
2021/11/16 11:08:50;;;;;;;5.15;4.75;;;18.00;99.90;;;;;;5071103;28;20087;-88
2021/11/16 11:11:22;;;;;;;5.07;4.68;;;18.00;99.90;;;;;;5059243;28;20048;-89
2021/11/16 11:14:01;;;;;;;5.18;4.68;;;18.00;99.90;;;;;;5055781;28;20045;-96
2021/11/16 11:16:28;;;;;;;5.03;4.63;;;18.00;99.90;;;;;;5054243;28;20040;-91
2021/11/16 11:18:55;;;;;;;5.70;5.00;;;18.00;99.90;;;;;;5071523;28;20090;-91
2021/11/16 11:21:27;;;;;;;5.10;4.70;;;18.00;99.90;;;;;;5072098;28;20468;-88
2021/11/16 11:23:59;;;;;;;5.13;4.47;;;18.00;99.90;;;;;;5049569;28;20101;-87
2021/11/16 11:27:29;;;;;;;5.70;4.70;;;18.00;99.90;;;;;;5053748;28;20139;-89
2021/11/16 11:29:39;;;;;;;5.05;4.32;;;18.00;99.90;;;;;;5059283;28;20132;-88
2021/11/16 11:32:07;;;;;;;5.35;4.85;;;18.00;99.90;;;;;;5051514;28;20052;-88
2021/11/16 11:34:40;;;;;;;5.07;4.57;;;18.00;99.90;;;;;;5070140;28;20051;-89
2021/11/16 11:37:17;;;;;;;4.93;4.45;;;18.10;99.90;;;;;;5067855;28;20053;-89
2021/11/16 11:39:53;;;;;;;5.40;4.88;;;18.10;99.90;;;;;;5069143;28;20384;-90
2021/11/16 11:42:19;;;;;;;5.20;4.63;;;18.00;99.90;;;;;;5067876;28;20064;-88
2021/11/16 11:45:08;;;;;;;5.35;4.85;;;18.00;99.90;;;;;;5052687;28;20106;-87
2021/11/16 11:47:37;;;;;;;5.05;4.53;;;18.00;99.90;;;;;;5053012;28;20040;-88
2021/11/16 11:50:28;;;;;;;4.80;4.32;;;18.10;99.90;;;;;;5071654;28;20079;-90
2021/11/16 11:52:55;;;;;;;5.88;4.47;;;18.00;99.90;;;;;;5044302;28;20045;-89
2021/11/16 11:55:21;;;;;;;4.95;4.45;;;18.00;99.90;;;;;;5090016;28;20044;-88
2021/11/16 11:57:48;;;;;;;5.07;4.57;;;18.00;99.90;;;;;;5055860;28;20115;-87
2021/11/16 12:00:14;;;;;;;5.00;4.50;;;18.00;99.90;;;;;;5055728;28;20048;-92
2021/11/16 12:02:41;;;;;;;5.35;4.85;;;18.00;99.90;;;;;;5069090;28;20053;-87
2021/11/16 12:05:07;;;;;;;5.03;4.63;;;18.00;99.90;;;;;;5057732;28;20044;-87
2021/11/16 12:07:33;;;;;;;5.40;4.70;;;18.00;99.90;;;;;;5074337;28;20044;-87
2021/11/16 12:09:59;;;;;;;5.00;4.50;;;18.00;99.90;;;;;;5059579;28;20071;-88
2021/11/16 12:12:25;;;;;;;6.95;4.32;;;18.00;99.90;;;;;;5072391;28;20364;-88
2021/11/16 12:15:07;;;;;;;4.82;4.43;;;18.00;99.90;;;;;;5059115;28;20051;-87
2021/11/16 12:17:39;;;;;;;5.35;4.85;;;18.10;99.90;;;;;;5058643;28;20115;-88
2021/11/16 12:20:05;;;;;;;5.13;4.63;;;18.10;99.90;;;;;;5092550;28;20479;-89
2021/11/16 12:22:32;;;;;;;5.68;4.85;;;18.00;99.90;;;;;;5101773;28;20048;-88
2021/11/16 12:25:19;;;;;;;5.95;5.35;;;18.10;99.90;;;;;;5075249;28;20054;-89
2021/11/16 12:27:45;;;;;;;4.78;4.38;;;18.10;99.90;;;;;;5072769;28;20130;-89
2021/11/16 12:30:12;;;;;;;5.78;5.20;;;18.10;99.90;;;;;;5055289;28;20174;-87
2021/11/16 12:32:51;;;;;;;4.40;4.00;;;18.10;99.90;;;;;;5084617;28;20051;-88
2021/11/16 12:35:20;;;;;;;5.55;4.93;;;18.00;99.90;;;;;;5075095;28;20039;-93
2021/11/16 12:37:54;;;;;;;5.18;4.53;;;18.00;99.90;;;;;;5075004;28;20052;-87
2021/11/16 12:40:23;;;;;;;4.35;3.92;;;18.00;99.90;;;;;;5091786;28;20464;-89
2021/11/16 12:43:06;;;;;;;5.22;4.72;;;18.10;99.90;;;;;;5108654;28;20044;-90
2021/11/16 12:45:49;;;;;;;4.63;4.22;;;18.00;99.90;;;;;;5058029;28;20078;-87
2021/11/16 12:48:19;;;;;;;4.63;4.05;;;18.00;99.90;;;;;;5074580;28;20087;-87
2021/11/16 12:51:03;;;;;;;;;;;18.00;99.90;;;;;;5075445;28;20039;-87
2021/11/16 12:53:49;;;;;;;4.50;4.10;;;18.00;99.90;;;;;;5079570;28;19923;-87
2021/11/16 12:56:16;;;;;;;4.75;4.07;;;18.00;99.90;;;;;;5075006;28;20377;-87
2021/11/16 12:58:56;;;;;;;4.22;3.92;;;18.00;99.90;;;;;;5058008;28;20066;-87
2021/11/16 13:01:56;;;;;;;5.47;4.38;;;18.00;99.90;;;;;;5074621;28;20095;-87
2021/11/16 13:04:41;;;;;;;4.30;3.90;;;18.00;99.90;;;;;;5074620;28;20063;-87
2021/11/16 13:07:19;;;;;;;4.72;4.22;;;18.00;99.90;;;;;;5072924;28;20131;-87
2021/11/16 13:09:54;;;;;;;4.68;4.28;;;18.00;99.90;;;;;;5065620;28;20051;-87
2021/11/16 13:12:35;;;;;;;5.25;4.15;;;18.00;99.90;;;;;;5060191;28;20592;-92
2021/11/16 13:15:06;;;;;;;4.50;4.10;;;18.00;99.90;;;;;;5074531;28;20043;-87